sensor_id;sensor_type;location;lat;lon;timestamp;P1;durP1;ratioP1;P2;durP2;ratioP2
14734;SDS011;7458;49.002;8.472;2022-11-27T00:02:01;35.95;;;23.88;;
14734;SDS011;7458;49.002;8.472;2022-11-27T00:04:26;30.73;;;24.40;;
14734;SDS011;7458;49.002;8.472;2022-11-27T00:06:52;33.72;;;27.25;;
14734;SDS011;7458;49.002;8.472;2022-11-27T00:09:18;39.35;;;24.40;;
14734;SDS011;7458;49.002;8.472;2022-11-27T00:11:44;28.05;;;23.40;;
14734;SDS011;7458;49.002;8.472;2022-11-27T00:14:11;35.40;;;25.33;;
14734;SDS011;7458;49.002;8.472;2022-11-27T00:16:41;24.77;;;21.92;;
14734;SDS011;7458;49.002;8.472;2022-11-27T00:19:08;25.55;;;20.77;;
14734;SDS011;7458;49.002;8.472;2022-11-27T00:21:35;30.67;;;21.38;;
14734;SDS011;7458;49.002;8.472;2022-11-27T00:24:03;35.40;;;21.67;;
14734;SDS011;7458;49.002;8.472;2022-11-27T00:26:32;34.03;;;23.50;;
14734;SDS011;7458;49.002;8.472;2022-11-27T00:28:59;24.48;;;20.40;;
14734;SDS011;7458;49.002;8.472;2022-11-27T00:31:28;26.08;;;20.88;;
14734;SDS011;7458;49.002;8.472;2022-11-27T00:33:57;28.40;;;22.02;;
14734;SDS011;7458;49.002;8.472;2022-11-27T00:36:31;33.25;;;23.80;;
14734;SDS011;7458;49.002;8.472;2022-11-27T00:38:58;32.70;;;23.63;;
14734;SDS011;7458;49.002;8.472;2022-11-27T00:41:28;30.58;;;22.27;;
14734;SDS011;7458;49.002;8.472;2022-11-27T00:43:54;28.80;;;21.33;;
14734;SDS011;7458;49.002;8.472;2022-11-27T00:46:22;31.13;;;21.92;;
14734;SDS011;7458;49.002;8.472;2022-11-27T00:48:51;23.63;;;18.85;;
14734;SDS011;7458;49.002;8.472;2022-11-27T00:51:19;23.23;;;18.77;;
14734;SDS011;7458;49.002;8.472;2022-11-27T00:53:47;22.80;;;17.00;;
14734;SDS011;7458;49.002;8.472;2022-11-27T00:56:13;24.08;;;17.20;;
14734;SDS011;7458;49.002;8.472;2022-11-27T00:58:42;20.27;;;16.05;;
14734;SDS011;7458;49.002;8.472;2022-11-27T01:01:14;23.45;;;14.85;;
14734;SDS011;7458;49.002;8.472;2022-11-27T01:03:44;17.30;;;14.18;;
14734;SDS011;7458;49.002;8.472;2022-11-27T01:06:11;20.38;;;13.50;;
14734;SDS011;7458;49.002;8.472;2022-11-27T01:08:37;16.65;;;11.32;;
14734;SDS011;7458;49.002;8.472;2022-11-27T01:11:03;15.32;;;12.10;;
14734;SDS011;7458;49.002;8.472;2022-11-27T01:13:31;15.23;;;12.23;;
14734;SDS011;7458;49.002;8.472;2022-11-27T01:16:00;16.10;;;12.38;;
14734;SDS011;7458;49.002;8.472;2022-11-27T01:18:31;14.93;;;12.40;;
14734;SDS011;7458;49.002;8.472;2022-11-27T01:20:59;14.18;;;12.38;;
14734;SDS011;7458;49.002;8.472;2022-11-27T01:23:25;23.27;;;14.07;;
14734;SDS011;7458;49.002;8.472;2022-11-27T01:25:51;25.27;;;14.57;;
14734;SDS011;7458;49.002;8.472;2022-11-27T01:28:18;18.52;;;14.82;;
14734;SDS011;7458;49.002;8.472;2022-11-27T01:30:48;17.30;;;14.45;;
14734;SDS011;7458;49.002;8.472;2022-11-27T01:33:15;26.35;;;15.57;;
14734;SDS011;7458;49.002;8.472;2022-11-27T01:35:41;27.75;;;14.60;;
14734;SDS011;7458;49.002;8.472;2022-11-27T01:38:07;23.52;;;16.38;;
14734;SDS011;7458;49.002;8.472;2022-11-27T01:40:33;24.33;;;14.55;;
14734;SDS011;7458;49.002;8.472;2022-11-27T01:42:59;42.08;;;15.95;;
14734;SDS011;7458;49.002;8.472;2022-11-27T01:45:24;45.30;;;17.15;;
14734;SDS011;7458;49.002;8.472;2022-11-27T01:47:53;18.65;;;13.00;;
14734;SDS011;7458;49.002;8.472;2022-11-27T01:50:29;28.33;;;14.30;;
14734;SDS011;7458;49.002;8.472;2022-11-27T01:53:13;18.08;;;13.52;;
14734;SDS011;7458;49.002;8.472;2022-11-27T01:55:44;16.55;;;13.98;;
14734;SDS011;7458;49.002;8.472;2022-11-27T01:58:16;30.75;;;16.65;;
14734;SDS011;7458;49.002;8.472;2022-11-27T02:00:51;30.27;;;16.10;;
14734;SDS011;7458;49.002;8.472;2022-11-27T02:03:17;19.05;;;14.38;;
14734;SDS011;7458;49.002;8.472;2022-11-27T02:05:43;29.02;;;15.15;;
14734;SDS011;7458;49.002;8.472;2022-11-27T02:08:10;21.98;;;16.08;;
14734;SDS011;7458;49.002;8.472;2022-11-27T02:16:11;27.00;;;16.58;;
14734;SDS011;7458;49.002;8.472;2022-11-27T02:22:26;19.40;;;13.07;;
14734;SDS011;7458;49.002;8.472;2022-11-27T02:25:12;52.95;;;19.27;;
14734;SDS011;7458;49.002;8.472;2022-11-27T02:31:18;41.17;;;17.23;;
14734;SDS011;7458;49.002;8.472;2022-11-27T02:33:57;19.67;;;15.20;;
14734;SDS011;7458;49.002;8.472;2022-11-27T02:36:49;17.98;;;14.82;;
14734;SDS011;7458;49.002;8.472;2022-11-27T02:39:30;47.22;;;20.08;;
14734;SDS011;7458;49.002;8.472;2022-11-27T02:42:06;21.80;;;16.60;;
14734;SDS011;7458;49.002;8.472;2022-11-27T02:44:42;17.42;;;14.70;;
14734;SDS011;7458;49.002;8.472;2022-11-27T02:47:18;21.38;;;12.95;;
14734;SDS011;7458;49.002;8.472;2022-11-27T02:49:46;30.65;;;14.30;;
14734;SDS011;7458;49.002;8.472;2022-11-27T02:52:16;20.73;;;13.13;;
14734;SDS011;7458;49.002;8.472;2022-11-27T02:54:44;17.30;;;14.57;;
14734;SDS011;7458;49.002;8.472;2022-11-27T02:57:13;16.60;;;12.57;;
14734;SDS011;7458;49.002;8.472;2022-11-27T02:59:42;14.15;;;11.30;;
14734;SDS011;7458;49.002;8.472;2022-11-27T03:02:10;26.35;;;14.00;;
14734;SDS011;7458;49.002;8.472;2022-11-27T03:04:48;29.13;;;14.63;;
14734;SDS011;7458;49.002;8.472;2022-11-27T03:07:25;16.02;;;12.35;;
14734;SDS011;7458;49.002;8.472;2022-11-27T03:10:15;30.65;;;11.85;;
14734;SDS011;7458;49.002;8.472;2022-11-27T03:12:54;17.55;;;12.27;;
14734;SDS011;7458;49.002;8.472;2022-11-27T03:15:20;39.40;;;12.95;;
14734;SDS011;7458;49.002;8.472;2022-11-27T03:18:00;16.70;;;12.55;;
14734;SDS011;7458;49.002;8.472;2022-11-27T03:20:52;16.52;;;12.98;;
14734;SDS011;7458;49.002;8.472;2022-11-27T03:23:33;17.40;;;12.30;;
14734;SDS011;7458;49.002;8.472;2022-11-27T03:25:58;16.25;;;10.82;;
14734;SDS011;7458;49.002;8.472;2022-11-27T03:28:24;16.33;;;11.02;;
14734;SDS011;7458;49.002;8.472;2022-11-27T03:30:53;21.48;;;11.20;;
14734;SDS011;7458;49.002;8.472;2022-11-27T03:33:19;20.73;;;12.18;;
14734;SDS011;7458;49.002;8.472;2022-11-27T03:35:45;44.03;;;12.10;;
14734;SDS011;7458;49.002;8.472;2022-11-27T03:38:10;25.77;;;11.85;;
14734;SDS011;7458;49.002;8.472;2022-11-27T03:44:16;22.70;;;10.52;;
14734;SDS011;7458;49.002;8.472;2022-11-27T03:52:29;14.02;;;12.13;;
14734;SDS011;7458;49.002;8.472;2022-11-27T03:58:14;13.57;;;10.40;;
14734;SDS011;7458;49.002;8.472;2022-11-27T04:01:00;15.75;;;12.07;;
14734;SDS011;7458;49.002;8.472;2022-11-27T04:03:30;14.75;;;10.73;;
14734;SDS011;7458;49.002;8.472;2022-11-27T04:05:56;16.35;;;10.07;;
14734;SDS011;7458;49.002;8.472;2022-11-27T04:08:22;18.55;;;11.20;;
14734;SDS011;7458;49.002;8.472;2022-11-27T04:10:48;15.68;;;10.40;;
14734;SDS011;7458;49.002;8.472;2022-11-27T04:13:15;14.90;;;10.73;;
14734;SDS011;7458;49.002;8.472;2022-11-27T04:15:40;14.02;;;11.35;;
14734;SDS011;7458;49.002;8.472;2022-11-27T04:18:06;10.32;;;8.93;;
14734;SDS011;7458;49.002;8.472;2022-11-27T04:20:32;11.05;;;9.10;;
14734;SDS011;7458;49.002;8.472;2022-11-27T04:22:58;16.73;;;9.77;;
14734;SDS011;7458;49.002;8.472;2022-11-27T04:25:23;14.07;;;10.82;;
14734;SDS011;7458;49.002;8.472;2022-11-27T04:27:49;12.90;;;10.55;;
14734;SDS011;7458;49.002;8.472;2022-11-27T04:30:16;15.77;;;10.73;;
14734;SDS011;7458;49.002;8.472;2022-11-27T04:32:42;13.45;;;9.30;;
14734;SDS011;7458;49.002;8.472;2022-11-27T04:35:08;13.35;;;9.57;;
14734;SDS011;7458;49.002;8.472;2022-11-27T04:37:34;16.85;;;9.88;;
14734;SDS011;7458;49.002;8.472;2022-11-27T04:40:00;11.40;;;9.35;;
14734;SDS011;7458;49.002;8.472;2022-11-27T04:42:26;18.92;;;9.70;;
14734;SDS011;7458;49.002;8.472;2022-11-27T04:44:52;13.38;;;10.25;;
14734;SDS011;7458;49.002;8.472;2022-11-27T04:47:17;12.73;;;10.70;;
14734;SDS011;7458;49.002;8.472;2022-11-27T04:49:43;13.80;;;10.07;;
14734;SDS011;7458;49.002;8.472;2022-11-27T04:52:09;11.73;;;10.50;;
14734;SDS011;7458;49.002;8.472;2022-11-27T04:54:35;10.82;;;9.70;;
14734;SDS011;7458;49.002;8.472;2022-11-27T04:57:01;15.75;;;10.40;;
14734;SDS011;7458;49.002;8.472;2022-11-27T04:59:28;19.50;;;9.90;;
14734;SDS011;7458;49.002;8.472;2022-11-27T05:01:54;12.65;;;9.13;;
14734;SDS011;7458;49.002;8.472;2022-11-27T05:04:20;12.60;;;9.68;;
14734;SDS011;7458;49.002;8.472;2022-11-27T05:06:46;12.35;;;9.63;;
14734;SDS011;7458;49.002;8.472;2022-11-27T05:09:16;14.10;;;9.82;;
14734;SDS011;7458;49.002;8.472;2022-11-27T05:11:42;13.57;;;10.02;;
14734;SDS011;7458;49.002;8.472;2022-11-27T05:14:09;20.85;;;10.40;;
14734;SDS011;7458;49.002;8.472;2022-11-27T05:16:44;15.55;;;11.55;;
14734;SDS011;7458;49.002;8.472;2022-11-27T05:19:11;21.17;;;8.98;;
14734;SDS011;7458;49.002;8.472;2022-11-27T05:21:38;22.08;;;9.93;;
14734;SDS011;7458;49.002;8.472;2022-11-27T05:24:05;13.00;;;9.18;;
14734;SDS011;7458;49.002;8.472;2022-11-27T05:26:32;18.77;;;8.50;;
14734;SDS011;7458;49.002;8.472;2022-11-27T05:28:58;19.67;;;10.60;;
14734;SDS011;7458;49.002;8.472;2022-11-27T05:31:25;19.75;;;8.05;;
14734;SDS011;7458;49.002;8.472;2022-11-27T05:33:51;11.93;;;9.05;;
14734;SDS011;7458;49.002;8.472;2022-11-27T05:36:16;14.18;;;10.57;;
14734;SDS011;7458;49.002;8.472;2022-11-27T05:38:42;16.58;;;9.38;;
14734;SDS011;7458;49.002;8.472;2022-11-27T05:41:08;17.95;;;11.52;;
14734;SDS011;7458;49.002;8.472;2022-11-27T05:43:34;14.00;;;9.00;;
14734;SDS011;7458;49.002;8.472;2022-11-27T05:46:06;23.67;;;9.60;;
14734;SDS011;7458;49.002;8.472;2022-11-27T05:48:36;30.35;;;9.95;;
14734;SDS011;7458;49.002;8.472;2022-11-27T05:51:02;14.27;;;10.25;;
14734;SDS011;7458;49.002;8.472;2022-11-27T05:53:29;16.88;;;10.07;;
14734;SDS011;7458;49.002;8.472;2022-11-27T05:55:59;19.08;;;10.48;;
14734;SDS011;7458;49.002;8.472;2022-11-27T05:58:32;16.88;;;9.98;;
14734;SDS011;7458;49.002;8.472;2022-11-27T06:00:58;12.02;;;9.82;;
14734;SDS011;7458;49.002;8.472;2022-11-27T06:03:24;19.40;;;10.50;;
14734;SDS011;7458;49.002;8.472;2022-11-27T06:05:51;26.20;;;11.68;;
14734;SDS011;7458;49.002;8.472;2022-11-27T06:08:17;24.23;;;10.48;;
14734;SDS011;7458;49.002;8.472;2022-11-27T06:10:47;25.02;;;10.02;;
14734;SDS011;7458;49.002;8.472;2022-11-27T06:13:13;16.25;;;9.68;;
14734;SDS011;7458;49.002;8.472;2022-11-27T06:15:39;14.95;;;9.50;;
14734;SDS011;7458;49.002;8.472;2022-11-27T06:18:05;14.40;;;9.25;;
14734;SDS011;7458;49.002;8.472;2022-11-27T06:20:32;15.20;;;10.02;;
14734;SDS011;7458;49.002;8.472;2022-11-27T06:22:58;13.80;;;9.25;;
14734;SDS011;7458;49.002;8.472;2022-11-27T06:25:25;13.60;;;9.88;;
14734;SDS011;7458;49.002;8.472;2022-11-27T06:27:50;11.93;;;9.27;;
14734;SDS011;7458;49.002;8.472;2022-11-27T06:30:16;15.45;;;9.15;;
14734;SDS011;7458;49.002;8.472;2022-11-27T06:32:43;17.63;;;9.00;;
14734;SDS011;7458;49.002;8.472;2022-11-27T06:35:09;9.48;;;8.32;;
14734;SDS011;7458;49.002;8.472;2022-11-27T06:37:35;14.07;;;8.15;;
14734;SDS011;7458;49.002;8.472;2022-11-27T06:40:00;11.25;;;7.80;;
14734;SDS011;7458;49.002;8.472;2022-11-27T06:42:27;9.40;;;8.20;;
14734;SDS011;7458;49.002;8.472;2022-11-27T06:44:54;10.85;;;6.90;;
14734;SDS011;7458;49.002;8.472;2022-11-27T06:47:20;22.88;;;7.72;;
14734;SDS011;7458;49.002;8.472;2022-11-27T06:49:48;7.43;;;6.68;;
14734;SDS011;7458;49.002;8.472;2022-11-27T06:52:14;9.30;;;7.38;;
14734;SDS011;7458;49.002;8.472;2022-11-27T06:54:39;8.77;;;7.82;;
14734;SDS011;7458;49.002;8.472;2022-11-27T06:57:05;9.52;;;7.75;;
14734;SDS011;7458;49.002;8.472;2022-11-27T06:59:31;8.95;;;7.00;;
14734;SDS011;7458;49.002;8.472;2022-11-27T07:01:56;8.95;;;6.80;;
14734;SDS011;7458;49.002;8.472;2022-11-27T07:04:22;8.05;;;5.45;;
14734;SDS011;7458;49.002;8.472;2022-11-27T07:06:48;7.57;;;6.50;;
14734;SDS011;7458;49.002;8.472;2022-11-27T07:09:14;7.38;;;5.82;;
14734;SDS011;7458;49.002;8.472;2022-11-27T07:11:40;8.00;;;6.00;;
14734;SDS011;7458;49.002;8.472;2022-11-27T07:14:06;7.93;;;5.78;;
14734;SDS011;7458;49.002;8.472;2022-11-27T07:16:33;9.27;;;6.55;;
14734;SDS011;7458;49.002;8.472;2022-11-27T07:19:01;6.70;;;5.45;;
14734;SDS011;7458;49.002;8.472;2022-11-27T07:21:31;6.93;;;5.68;;
14734;SDS011;7458;49.002;8.472;2022-11-27T07:24:00;7.57;;;5.40;;
14734;SDS011;7458;49.002;8.472;2022-11-27T07:26:27;7.55;;;6.18;;
14734;SDS011;7458;49.002;8.472;2022-11-27T07:28:54;8.35;;;6.63;;
14734;SDS011;7458;49.002;8.472;2022-11-27T07:31:22;7.18;;;6.47;;
14734;SDS011;7458;49.002;8.472;2022-11-27T07:33:52;7.45;;;6.47;;
14734;SDS011;7458;49.002;8.472;2022-11-27T07:36:25;8.48;;;7.15;;
14734;SDS011;7458;49.002;8.472;2022-11-27T07:38:54;7.78;;;7.00;;
14734;SDS011;7458;49.002;8.472;2022-11-27T07:41:22;8.18;;;6.80;;
14734;SDS011;7458;49.002;8.472;2022-11-27T07:43:48;7.82;;;6.32;;
14734;SDS011;7458;49.002;8.472;2022-11-27T07:46:15;8.18;;;6.93;;
14734;SDS011;7458;49.002;8.472;2022-11-27T07:48:44;8.95;;;7.50;;
14734;SDS011;7458;49.002;8.472;2022-11-27T07:51:12;7.85;;;6.72;;
14734;SDS011;7458;49.002;8.472;2022-11-27T07:53:41;12.52;;;9.35;;
14734;SDS011;7458;49.002;8.472;2022-11-27T07:56:08;10.18;;;8.52;;
14734;SDS011;7458;49.002;8.472;2022-11-27T07:58:36;16.67;;;9.75;;
14734;SDS011;7458;49.002;8.472;2022-11-27T08:01:05;11.35;;;9.00;;
14734;SDS011;7458;49.002;8.472;2022-11-27T08:03:34;10.25;;;8.52;;
14734;SDS011;7458;49.002;8.472;2022-11-27T08:06:00;11.80;;;9.15;;
14734;SDS011;7458;49.002;8.472;2022-11-27T08:08:26;9.38;;;8.30;;
14734;SDS011;7458;49.002;8.472;2022-11-27T08:10:52;9.57;;;8.25;;
14734;SDS011;7458;49.002;8.472;2022-11-27T08:13:18;8.40;;;7.15;;
14734;SDS011;7458;49.002;8.472;2022-11-27T08:15:43;9.73;;;8.73;;
14734;SDS011;7458;49.002;8.472;2022-11-27T08:18:10;11.50;;;10.40;;
14734;SDS011;7458;49.002;8.472;2022-11-27T08:20:36;11.32;;;9.93;;
14734;SDS011;7458;49.002;8.472;2022-11-27T08:23:02;11.32;;;9.05;;
14734;SDS011;7458;49.002;8.472;2022-11-27T08:25:28;10.15;;;8.85;;
14734;SDS011;7458;49.002;8.472;2022-11-27T08:27:55;9.98;;;8.10;;
14734;SDS011;7458;49.002;8.472;2022-11-27T08:30:20;10.85;;;8.48;;
14734;SDS011;7458;49.002;8.472;2022-11-27T08:32:47;10.20;;;9.20;;
14734;SDS011;7458;49.002;8.472;2022-11-27T08:35:13;12.00;;;9.25;;
14734;SDS011;7458;49.002;8.472;2022-11-27T08:37:39;14.35;;;9.77;;
14734;SDS011;7458;49.002;8.472;2022-11-27T08:40:05;10.48;;;9.10;;
14734;SDS011;7458;49.002;8.472;2022-11-27T08:42:32;10.20;;;8.93;;
14734;SDS011;7458;49.002;8.472;2022-11-27T08:44:57;9.95;;;8.98;;
14734;SDS011;7458;49.002;8.472;2022-11-27T08:47:23;11.70;;;9.20;;
14734;SDS011;7458;49.002;8.472;2022-11-27T08:49:49;11.82;;;8.25;;
14734;SDS011;7458;49.002;8.472;2022-11-27T08:52:14;7.93;;;7.05;;
14734;SDS011;7458;49.002;8.472;2022-11-27T08:54:40;10.75;;;9.65;;
14734;SDS011;7458;49.002;8.472;2022-11-27T08:57:06;8.75;;;6.82;;
14734;SDS011;7458;49.002;8.472;2022-11-27T08:59:31;10.75;;;8.85;;
14734;SDS011;7458;49.002;8.472;2022-11-27T09:01:57;11.73;;;8.52;;
14734;SDS011;7458;49.002;8.472;2022-11-27T09:04:23;10.90;;;8.02;;
14734;SDS011;7458;49.002;8.472;2022-11-27T09:06:48;9.48;;;7.75;;
14734;SDS011;7458;49.002;8.472;2022-11-27T09:09:14;9.60;;;8.02;;
14734;SDS011;7458;49.002;8.472;2022-11-27T09:11:40;9.95;;;8.85;;
14734;SDS011;7458;49.002;8.472;2022-11-27T09:14:06;8.68;;;7.15;;
14734;SDS011;7458;49.002;8.472;2022-11-27T09:16:33;10.02;;;7.93;;
14734;SDS011;7458;49.002;8.472;2022-11-27T09:18:59;9.60;;;7.97;;
14734;SDS011;7458;49.002;8.472;2022-11-27T09:21:26;13.93;;;8.85;;
14734;SDS011;7458;49.002;8.472;2022-11-27T09:23:55;7.90;;;7.13;;
14734;SDS011;7458;49.002;8.472;2022-11-27T09:26:23;9.02;;;7.95;;
14734;SDS011;7458;49.002;8.472;2022-11-27T09:28:50;12.18;;;8.55;;
14734;SDS011;7458;49.002;8.472;2022-11-27T09:31:18;11.05;;;7.78;;
14734;SDS011;7458;49.002;8.472;2022-11-27T09:33:46;12.20;;;9.63;;
14734;SDS011;7458;49.002;8.472;2022-11-27T09:36:16;10.45;;;8.50;;
14734;SDS011;7458;49.002;8.472;2022-11-27T09:38:46;7.88;;;6.95;;
14734;SDS011;7458;49.002;8.472;2022-11-27T09:43:55;8.85;;;6.22;;
14734;SDS011;7458;49.002;8.472;2022-11-27T09:46:36;7.70;;;6.93;;
14734;SDS011;7458;49.002;8.472;2022-11-27T09:49:06;9.90;;;8.10;;
14734;SDS011;7458;49.002;8.472;2022-11-27T09:54:25;9.75;;;8.65;;
14734;SDS011;7458;49.002;8.472;2022-11-27T09:57:13;9.80;;;8.25;;
14734;SDS011;7458;49.002;8.472;2022-11-27T09:59:46;10.02;;;8.35;;
14734;SDS011;7458;49.002;8.472;2022-11-27T10:02:15;9.80;;;8.25;;
14734;SDS011;7458;49.002;8.472;2022-11-27T10:04:50;8.52;;;7.03;;
14734;SDS011;7458;49.002;8.472;2022-11-27T10:18:50;10.88;;;9.18;;
14734;SDS011;7458;49.002;8.472;2022-11-27T10:28:03;10.10;;;7.78;;
14734;SDS011;7458;49.002;8.472;2022-11-27T10:30:36;8.05;;;7.25;;
14734;SDS011;7458;49.002;8.472;2022-11-27T10:33:21;9.85;;;8.02;;
14734;SDS011;7458;49.002;8.472;2022-11-27T10:36:00;10.75;;;9.63;;
14734;SDS011;7458;49.002;8.472;2022-11-27T10:38:27;12.38;;;10.13;;
14734;SDS011;7458;49.002;8.472;2022-11-27T10:41:06;10.30;;;9.27;;
14734;SDS011;7458;49.002;8.472;2022-11-27T10:43:41;11.98;;;10.73;;
14734;SDS011;7458;49.002;8.472;2022-11-27T10:46:11;14.00;;;10.35;;
14734;SDS011;7458;49.002;8.472;2022-11-27T10:48:47;13.48;;;11.43;;
14734;SDS011;7458;49.002;8.472;2022-11-27T10:51:14;12.10;;;10.90;;
14734;SDS011;7458;49.002;8.472;2022-11-27T10:53:49;15.05;;;12.55;;
14734;SDS011;7458;49.002;8.472;2022-11-27T10:58:59;15.90;;;14.30;;
14734;SDS011;7458;49.002;8.472;2022-11-27T11:01:44;26.23;;;18.63;;
14734;SDS011;7458;49.002;8.472;2022-11-27T11:04:13;16.77;;;14.75;;
14734;SDS011;7458;49.002;8.472;2022-11-27T11:06:46;24.10;;;19.35;;
14734;SDS011;7458;49.002;8.472;2022-11-27T11:09:33;32.90;;;24.23;;
14734;SDS011;7458;49.002;8.472;2022-11-27T11:12:06;18.30;;;14.82;;
14734;SDS011;7458;49.002;8.472;2022-11-27T11:14:58;15.52;;;13.93;;
14734;SDS011;7458;49.002;8.472;2022-11-27T11:17:26;19.38;;;15.48;;
14734;SDS011;7458;49.002;8.472;2022-11-27T11:19:58;18.13;;;16.35;;
14734;SDS011;7458;49.002;8.472;2022-11-27T11:22:24;20.58;;;17.38;;
14734;SDS011;7458;49.002;8.472;2022-11-27T11:24:53;19.35;;;15.98;;
14734;SDS011;7458;49.002;8.472;2022-11-27T11:27:26;17.45;;;15.13;;
14734;SDS011;7458;49.002;8.472;2022-11-27T11:29:59;20.55;;;16.02;;
14734;SDS011;7458;49.002;8.472;2022-11-27T11:32:33;18.45;;;15.35;;
14734;SDS011;7458;49.002;8.472;2022-11-27T11:35:36;16.52;;;14.77;;
14734;SDS011;7458;49.002;8.472;2022-11-27T11:37:58;20.08;;;16.52;;
14734;SDS011;7458;49.002;8.472;2022-11-27T11:40:32;19.40;;;17.27;;
14734;SDS011;7458;49.002;8.472;2022-11-27T11:43:03;22.35;;;16.80;;
14734;SDS011;7458;49.002;8.472;2022-11-27T11:45:46;18.42;;;16.33;;
14734;SDS011;7458;49.002;8.472;2022-11-27T11:48:23;21.40;;;18.00;;
14734;SDS011;7458;49.002;8.472;2022-11-27T11:51:01;20.98;;;16.58;;
14734;SDS011;7458;49.002;8.472;2022-11-27T11:53:39;22.08;;;17.73;;
14734;SDS011;7458;49.002;8.472;2022-11-27T11:56:26;22.50;;;19.13;;
14734;SDS011;7458;49.002;8.472;2022-11-27T12:07:57;24.08;;;19.70;;
14734;SDS011;7458;49.002;8.472;2022-11-27T12:10:52;26.75;;;17.83;;
14734;SDS011;7458;49.002;8.472;2022-11-27T12:33:58;26.13;;;18.42;;
14734;SDS011;7458;49.002;8.472;2022-11-27T12:45:20;22.35;;;17.30;;
14734;SDS011;7458;49.002;8.472;2022-11-27T12:47:58;26.92;;;17.08;;
14734;SDS011;7458;49.002;8.472;2022-11-27T12:53:16;19.48;;;15.48;;
14734;SDS011;7458;49.002;8.472;2022-11-27T12:56:02;22.00;;;14.65;;
14734;SDS011;7458;49.002;8.472;2022-11-27T12:58:37;19.42;;;15.30;;
14734;SDS011;7458;49.002;8.472;2022-11-27T13:01:10;20.63;;;15.95;;
14734;SDS011;7458;49.002;8.472;2022-11-27T13:04:02;17.50;;;14.20;;
14734;SDS011;7458;49.002;8.472;2022-11-27T13:07:05;16.53;;;13.40;;
14734;SDS011;7458;49.002;8.472;2022-11-27T13:12:42;23.48;;;15.52;;
14734;SDS011;7458;49.002;8.472;2022-11-27T13:15:33;18.85;;;14.07;;
14734;SDS011;7458;49.002;8.472;2022-11-27T13:21:08;21.10;;;14.48;;
14734;SDS011;7458;49.002;8.472;2022-11-27T13:23:41;19.20;;;13.65;;
14734;SDS011;7458;49.002;8.472;2022-11-27T13:26:14;16.20;;;11.82;;
14734;SDS011;7458;49.002;8.472;2022-11-27T13:31:55;20.52;;;13.48;;
14734;SDS011;7458;49.002;8.472;2022-11-27T13:34:27;17.70;;;15.68;;
14734;SDS011;7458;49.002;8.472;2022-11-27T13:36:59;17.05;;;13.45;;
14734;SDS011;7458;49.002;8.472;2022-11-27T13:39:31;17.63;;;13.13;;
14734;SDS011;7458;49.002;8.472;2022-11-27T13:42:13;17.33;;;13.18;;
14734;SDS011;7458;49.002;8.472;2022-11-27T13:44:52;19.00;;;14.60;;
14734;SDS011;7458;49.002;8.472;2022-11-27T13:47:24;20.40;;;15.27;;
14734;SDS011;7458;49.002;8.472;2022-11-27T13:50:04;17.40;;;15.40;;
14734;SDS011;7458;49.002;8.472;2022-11-27T13:52:35;24.33;;;17.02;;
14734;SDS011;7458;49.002;8.472;2022-11-27T13:55:02;19.98;;;12.98;;
14734;SDS011;7458;49.002;8.472;2022-11-27T13:57:36;17.30;;;13.95;;
14734;SDS011;7458;49.002;8.472;2022-11-27T14:00:09;17.35;;;14.35;;
14734;SDS011;7458;49.002;8.472;2022-11-27T14:02:45;20.10;;;15.75;;
14734;SDS011;7458;49.002;8.472;2022-11-27T14:05:17;18.70;;;14.35;;
14734;SDS011;7458;49.002;8.472;2022-11-27T14:07:57;18.63;;;13.50;;
14734;SDS011;7458;49.002;8.472;2022-11-27T14:10:25;19.60;;;14.43;;
14734;SDS011;7458;49.002;8.472;2022-11-27T14:12:57;22.40;;;14.80;;
14734;SDS011;7458;49.002;8.472;2022-11-27T14:15:28;17.48;;;13.70;;
14734;SDS011;7458;49.002;8.472;2022-11-27T14:20:50;24.02;;;16.08;;
14734;SDS011;7458;49.002;8.472;2022-11-27T14:23:35;20.73;;;15.35;;
14734;SDS011;7458;49.002;8.472;2022-11-27T14:28:40;21.58;;;17.30;;
14734;SDS011;7458;49.002;8.472;2022-11-27T14:31:26;23.15;;;16.52;;
14734;SDS011;7458;49.002;8.472;2022-11-27T14:33:59;20.67;;;17.50;;
14734;SDS011;7458;49.002;8.472;2022-11-27T14:36:27;20.80;;;16.50;;
14734;SDS011;7458;49.002;8.472;2022-11-27T14:38:58;25.70;;;18.42;;
14734;SDS011;7458;49.002;8.472;2022-11-27T14:41:25;18.70;;;15.63;;
14734;SDS011;7458;49.002;8.472;2022-11-27T14:43:59;22.48;;;16.88;;
14734;SDS011;7458;49.002;8.472;2022-11-27T14:46:37;18.02;;;15.35;;
14734;SDS011;7458;49.002;8.472;2022-11-27T14:49:03;22.55;;;15.38;;
14734;SDS011;7458;49.002;8.472;2022-11-27T14:51:30;22.58;;;18.13;;
14734;SDS011;7458;49.002;8.472;2022-11-27T14:54:03;22.60;;;17.92;;
14734;SDS011;7458;49.002;8.472;2022-11-27T14:56:36;22.05;;;17.27;;
14734;SDS011;7458;49.002;8.472;2022-11-27T14:59:17;24.52;;;18.98;;
14734;SDS011;7458;49.002;8.472;2022-11-27T15:04:40;22.00;;;17.77;;
14734;SDS011;7458;49.002;8.472;2022-11-27T15:07:13;28.27;;;17.67;;
14734;SDS011;7458;49.002;8.472;2022-11-27T15:10:01;23.10;;;18.20;;
14734;SDS011;7458;49.002;8.472;2022-11-27T15:12:43;26.45;;;19.48;;
14734;SDS011;7458;49.002;8.472;2022-11-27T15:17:48;27.38;;;19.80;;
14734;SDS011;7458;49.002;8.472;2022-11-27T15:22:56;28.85;;;21.05;;
14734;SDS011;7458;49.002;8.472;2022-11-27T15:25:43;23.75;;;19.75;;
14734;SDS011;7458;49.002;8.472;2022-11-27T15:30:52;25.02;;;20.83;;
14734;SDS011;7458;49.002;8.472;2022-11-27T15:33:26;26.80;;;19.08;;
14734;SDS011;7458;49.002;8.472;2022-11-27T15:38:46;24.80;;;19.13;;
14734;SDS011;7458;49.002;8.472;2022-11-27T15:41:24;20.30;;;16.67;;
14734;SDS011;7458;49.002;8.472;2022-11-27T15:43:54;23.30;;;16.65;;
14734;SDS011;7458;49.002;8.472;2022-11-27T15:46:24;18.38;;;15.18;;
14734;SDS011;7458;49.002;8.472;2022-11-27T15:48:54;23.55;;;18.08;;
14734;SDS011;7458;49.002;8.472;2022-11-27T15:51:21;24.02;;;18.95;;
14734;SDS011;7458;49.002;8.472;2022-11-27T15:53:47;21.75;;;17.40;;
14734;SDS011;7458;49.002;8.472;2022-11-27T15:56:13;22.10;;;18.38;;
14734;SDS011;7458;49.002;8.472;2022-11-27T15:58:40;24.65;;;19.10;;
14734;SDS011;7458;49.002;8.472;2022-11-27T16:01:07;23.02;;;20.23;;
14734;SDS011;7458;49.002;8.472;2022-11-27T16:03:33;25.98;;;18.70;;
14734;SDS011;7458;49.002;8.472;2022-11-27T16:06:05;21.13;;;18.10;;
14734;SDS011;7458;49.002;8.472;2022-11-27T16:08:33;25.27;;;20.20;;
14734;SDS011;7458;49.002;8.472;2022-11-27T16:11:00;26.13;;;20.38;;
14734;SDS011;7458;49.002;8.472;2022-11-27T16:13:29;28.23;;;22.13;;
14734;SDS011;7458;49.002;8.472;2022-11-27T16:15:59;24.98;;;19.38;;
14734;SDS011;7458;49.002;8.472;2022-11-27T16:18:27;25.15;;;20.95;;
14734;SDS011;7458;49.002;8.472;2022-11-27T16:20:54;23.08;;;20.30;;
14734;SDS011;7458;49.002;8.472;2022-11-27T16:23:19;28.23;;;20.88;;
14734;SDS011;7458;49.002;8.472;2022-11-27T16:25:45;26.48;;;21.20;;
14734;SDS011;7458;49.002;8.472;2022-11-27T16:28:11;26.48;;;22.02;;
14734;SDS011;7458;49.002;8.472;2022-11-27T16:30:36;27.83;;;24.23;;
14734;SDS011;7458;49.002;8.472;2022-11-27T16:33:02;76.22;;;60.53;;
14734;SDS011;7458;49.002;8.472;2022-11-27T16:35:28;27.45;;;22.33;;
14734;SDS011;7458;49.002;8.472;2022-11-27T16:37:53;25.33;;;21.25;;
14734;SDS011;7458;49.002;8.472;2022-11-27T16:40:19;31.60;;;21.50;;
14734;SDS011;7458;49.002;8.472;2022-11-27T16:42:45;28.00;;;19.98;;
14734;SDS011;7458;49.002;8.472;2022-11-27T16:45:10;28.88;;;21.90;;
14734;SDS011;7458;49.002;8.472;2022-11-27T16:47:36;24.52;;;21.13;;
14734;SDS011;7458;49.002;8.472;2022-11-27T16:50:02;31.08;;;24.17;;
14734;SDS011;7458;49.002;8.472;2022-11-27T16:52:29;29.25;;;22.67;;
14734;SDS011;7458;49.002;8.472;2022-11-27T16:54:54;29.45;;;23.40;;
14734;SDS011;7458;49.002;8.472;2022-11-27T16:57:20;28.13;;;23.50;;
14734;SDS011;7458;49.002;8.472;2022-11-27T16:59:46;32.53;;;25.25;;